sensor_id;sensor_type;location;lat;lon;timestamp;P1;durP1;ratioP1;P2;durP2;ratioP2
12024;SDS011;6073;53.230;10.444;2023-04-21T00:01:09;10.70;;;8.63;;
12024;SDS011;6073;53.230;10.444;2023-04-21T00:03:35;15.10;;;9.07;;
12024;SDS011;6073;53.230;10.444;2023-04-21T00:06:05;10.85;;;8.68;;
12024;SDS011;6073;53.230;10.444;2023-04-21T00:08:33;13.48;;;9.15;;
12024;SDS011;6073;53.230;10.444;2023-04-21T00:11:04;13.88;;;9.20;;
12024;SDS011;6073;53.230;10.444;2023-04-21T00:13:33;12.80;;;8.80;;
12024;SDS011;6073;53.230;10.444;2023-04-21T00:15:59;12.60;;;9.65;;
12024;SDS011;6073;53.230;10.444;2023-04-21T00:18:25;12.45;;;9.55;;
12024;SDS011;6073;53.230;10.444;2023-04-21T00:20:51;15.38;;;9.20;;
12024;SDS011;6073;53.230;10.444;2023-04-21T00:23:17;13.77;;;8.80;;
12024;SDS011;6073;53.230;10.444;2023-04-21T00:25:42;12.27;;;9.15;;
12024;SDS011;6073;53.230;10.444;2023-04-21T00:28:08;12.07;;;9.05;;
12024;SDS011;6073;53.230;10.444;2023-04-21T00:30:33;14.13;;;9.40;;
12024;SDS011;6073;53.230;10.444;2023-04-21T00:32:59;13.35;;;8.93;;
12024;SDS011;6073;53.230;10.444;2023-04-21T00:35:24;15.05;;;9.45;;
12024;SDS011;6073;53.230;10.444;2023-04-21T00:37:50;15.45;;;9.15;;
12024;SDS011;6073;53.230;10.444;2023-04-21T00:40:15;17.52;;;9.50;;
12024;SDS011;6073;53.230;10.444;2023-04-21T00:42:41;11.95;;;9.50;;
12024;SDS011;6073;53.230;10.444;2023-04-21T00:45:07;13.80;;;9.38;;
12024;SDS011;6073;53.230;10.444;2023-04-21T00:47:32;18.63;;;11.02;;
12024;SDS011;6073;53.230;10.444;2023-04-21T00:49:58;13.43;;;9.52;;
12024;SDS011;6073;53.230;10.444;2023-04-21T00:52:23;14.45;;;9.93;;
12024;SDS011;6073;53.230;10.444;2023-04-21T00:54:50;17.30;;;10.25;;
12024;SDS011;6073;53.230;10.444;2023-04-21T00:57:17;15.55;;;10.30;;
12024;SDS011;6073;53.230;10.444;2023-04-21T00:59:44;19.20;;;10.90;;
12024;SDS011;6073;53.230;10.444;2023-04-21T01:02:09;16.13;;;11.68;;
12024;SDS011;6073;53.230;10.444;2023-04-21T01:04:35;18.33;;;10.70;;
12024;SDS011;6073;53.230;10.444;2023-04-21T01:07:03;16.63;;;10.60;;
12024;SDS011;6073;53.230;10.444;2023-04-21T01:09:31;16.58;;;11.70;;
12024;SDS011;6073;53.230;10.444;2023-04-21T01:12:01;15.57;;;10.07;;
12024;SDS011;6073;53.230;10.444;2023-04-21T01:14:30;18.30;;;10.77;;
12024;SDS011;6073;53.230;10.444;2023-04-21T01:16:56;16.38;;;10.43;;
12024;SDS011;6073;53.230;10.444;2023-04-21T01:19:22;13.82;;;10.05;;
12024;SDS011;6073;53.230;10.444;2023-04-21T01:21:51;16.08;;;10.38;;
12024;SDS011;6073;53.230;10.444;2023-04-21T01:24:29;15.88;;;9.68;;
12024;SDS011;6073;53.230;10.444;2023-04-21T01:27:00;17.50;;;10.23;;
12024;SDS011;6073;53.230;10.444;2023-04-21T01:29:25;16.15;;;10.68;;
12024;SDS011;6073;53.230;10.444;2023-04-21T01:31:51;16.15;;;10.93;;
12024;SDS011;6073;53.230;10.444;2023-04-21T01:34:16;17.05;;;10.88;;
12024;SDS011;6073;53.230;10.444;2023-04-21T01:36:42;18.50;;;11.13;;
12024;SDS011;6073;53.230;10.444;2023-04-21T01:39:07;15.63;;;10.57;;
12024;SDS011;6073;53.230;10.444;2023-04-21T01:41:33;16.73;;;9.85;;
12024;SDS011;6073;53.230;10.444;2023-04-21T01:43:58;16.75;;;9.60;;
12024;SDS011;6073;53.230;10.444;2023-04-21T01:46:25;14.65;;;10.30;;
12024;SDS011;6073;53.230;10.444;2023-04-21T01:48:50;18.42;;;11.02;;
12024;SDS011;6073;53.230;10.444;2023-04-21T01:51:16;17.50;;;10.55;;
12024;SDS011;6073;53.230;10.444;2023-04-21T01:53:41;13.23;;;10.48;;
12024;SDS011;6073;53.230;10.444;2023-04-21T01:56:07;15.45;;;10.80;;
12024;SDS011;6073;53.230;10.444;2023-04-21T01:58:32;14.88;;;10.00;;
12024;SDS011;6073;53.230;10.444;2023-04-21T02:00:58;14.00;;;10.40;;
12024;SDS011;6073;53.230;10.444;2023-04-21T02:03:23;16.15;;;10.90;;
12024;SDS011;6073;53.230;10.444;2023-04-21T02:05:49;15.23;;;10.25;;
12024;SDS011;6073;53.230;10.444;2023-04-21T02:08:15;17.27;;;11.05;;
12024;SDS011;6073;53.230;10.444;2023-04-21T02:10:41;14.40;;;11.07;;
12024;SDS011;6073;53.230;10.444;2023-04-21T02:13:06;16.50;;;10.38;;
12024;SDS011;6073;53.230;10.444;2023-04-21T02:15:32;14.65;;;9.98;;
12024;SDS011;6073;53.230;10.444;2023-04-21T02:17:57;16.25;;;10.35;;
12024;SDS011;6073;53.230;10.444;2023-04-21T02:20:23;14.93;;;10.05;;
12024;SDS011;6073;53.230;10.444;2023-04-21T02:22:48;16.52;;;10.50;;
12024;SDS011;6073;53.230;10.444;2023-04-21T02:25:14;14.50;;;9.63;;
12024;SDS011;6073;53.230;10.444;2023-04-21T02:27:40;12.65;;;9.82;;
12024;SDS011;6073;53.230;10.444;2023-04-21T02:30:05;14.10;;;9.85;;
12024;SDS011;6073;53.230;10.444;2023-04-21T02:32:31;20.00;;;10.07;;
12024;SDS011;6073;53.230;10.444;2023-04-21T02:34:57;14.63;;;10.00;;
12024;SDS011;6073;53.230;10.444;2023-04-21T02:37:23;16.65;;;10.20;;
12024;SDS011;6073;53.230;10.444;2023-04-21T02:39:48;18.15;;;9.70;;
12024;SDS011;6073;53.230;10.444;2023-04-21T02:42:14;15.00;;;9.90;;
12024;SDS011;6073;53.230;10.444;2023-04-21T02:44:39;11.38;;;9.73;;
12024;SDS011;6073;53.230;10.444;2023-04-21T02:47:06;13.38;;;8.93;;
12024;SDS011;6073;53.230;10.444;2023-04-21T02:49:32;12.02;;;9.73;;
12024;SDS011;6073;53.230;10.444;2023-04-21T02:51:57;13.50;;;9.82;;
12024;SDS011;6073;53.230;10.444;2023-04-21T02:54:23;16.30;;;10.10;;
12024;SDS011;6073;53.230;10.444;2023-04-21T02:56:49;14.23;;;10.13;;
12024;SDS011;6073;53.230;10.444;2023-04-21T02:59:14;15.13;;;9.93;;
12024;SDS011;6073;53.230;10.444;2023-04-21T03:01:40;17.23;;;10.35;;
12024;SDS011;6073;53.230;10.444;2023-04-21T03:04:06;13.23;;;9.45;;
12024;SDS011;6073;53.230;10.444;2023-04-21T03:06:32;15.30;;;10.63;;
12024;SDS011;6073;53.230;10.444;2023-04-21T03:08:58;14.50;;;9.98;;
12024;SDS011;6073;53.230;10.444;2023-04-21T03:11:23;16.15;;;10.88;;
12024;SDS011;6073;53.230;10.444;2023-04-21T03:13:49;18.42;;;10.68;;
12024;SDS011;6073;53.230;10.444;2023-04-21T03:16:14;15.57;;;10.18;;
12024;SDS011;6073;53.230;10.444;2023-04-21T03:18:40;15.88;;;11.00;;
12024;SDS011;6073;53.230;10.444;2023-04-21T03:21:06;17.45;;;9.82;;
12024;SDS011;6073;53.230;10.444;2023-04-21T03:23:31;13.25;;;10.18;;
12024;SDS011;6073;53.230;10.444;2023-04-21T03:25:57;15.05;;;9.60;;
12024;SDS011;6073;53.230;10.444;2023-04-21T03:28:22;15.75;;;10.18;;
12024;SDS011;6073;53.230;10.444;2023-04-21T03:30:48;20.30;;;10.65;;
12024;SDS011;6073;53.230;10.444;2023-04-21T03:33:13;16.35;;;10.25;;
12024;SDS011;6073;53.230;10.444;2023-04-21T03:35:39;16.23;;;10.93;;
12024;SDS011;6073;53.230;10.444;2023-04-21T03:38:04;16.67;;;10.50;;
12024;SDS011;6073;53.230;10.444;2023-04-21T03:40:30;17.67;;;10.77;;
12024;SDS011;6073;53.230;10.444;2023-04-21T03:42:55;15.48;;;10.65;;
12024;SDS011;6073;53.230;10.444;2023-04-21T03:45:21;14.25;;;10.70;;
12024;SDS011;6073;53.230;10.444;2023-04-21T03:47:48;16.58;;;10.60;;
12024;SDS011;6073;53.230;10.444;2023-04-21T03:50:17;15.68;;;10.40;;
12024;SDS011;6073;53.230;10.444;2023-04-21T03:52:42;18.90;;;10.65;;
12024;SDS011;6073;53.230;10.444;2023-04-21T03:55:08;15.75;;;10.13;;
12024;SDS011;6073;53.230;10.444;2023-04-21T03:57:35;17.10;;;10.88;;
12024;SDS011;6073;53.230;10.444;2023-04-21T04:00:02;16.20;;;10.85;;
12024;SDS011;6073;53.230;10.444;2023-04-21T04:02:29;14.38;;;10.68;;
12024;SDS011;6073;53.230;10.444;2023-04-21T04:04:55;14.02;;;9.85;;
12024;SDS011;6073;53.230;10.444;2023-04-21T04:07:20;15.90;;;10.18;;
12024;SDS011;6073;53.230;10.444;2023-04-21T04:09:46;15.13;;;10.00;;
12024;SDS011;6073;53.230;10.444;2023-04-21T04:12:11;13.68;;;10.00;;
12024;SDS011;6073;53.230;10.444;2023-04-21T04:14:37;14.68;;;10.93;;
12024;SDS011;6073;53.230;10.444;2023-04-21T04:17:03;13.57;;;10.57;;
12024;SDS011;6073;53.230;10.444;2023-04-21T04:19:29;14.18;;;10.05;;
12024;SDS011;6073;53.230;10.444;2023-04-21T04:21:56;15.50;;;10.25;;
12024;SDS011;6073;53.230;10.444;2023-04-21T04:24:23;15.32;;;10.07;;
12024;SDS011;6073;53.230;10.444;2023-04-21T04:26:51;15.27;;;10.65;;
12024;SDS011;6073;53.230;10.444;2023-04-21T04:29:18;11.43;;;9.48;;
12024;SDS011;6073;53.230;10.444;2023-04-21T04:31:43;14.45;;;10.23;;
12024;SDS011;6073;53.230;10.444;2023-04-21T04:34:09;18.00;;;10.25;;
12024;SDS011;6073;53.230;10.444;2023-04-21T04:36:35;12.77;;;9.63;;
12024;SDS011;6073;53.230;10.444;2023-04-21T04:39:00;13.30;;;9.55;;
12024;SDS011;6073;53.230;10.444;2023-04-21T04:41:28;15.32;;;10.38;;
12024;SDS011;6073;53.230;10.444;2023-04-21T04:43:54;15.60;;;11.40;;
12024;SDS011;6073;53.230;10.444;2023-04-21T04:46:23;12.23;;;9.70;;
12024;SDS011;6073;53.230;10.444;2023-04-21T04:48:49;14.63;;;10.30;;
12024;SDS011;6073;53.230;10.444;2023-04-21T04:51:15;16.38;;;10.13;;
12024;SDS011;6073;53.230;10.444;2023-04-21T04:53:41;16.67;;;10.45;;
12024;SDS011;6073;53.230;10.444;2023-04-21T04:56:06;16.48;;;9.80;;
12024;SDS011;6073;53.230;10.444;2023-04-21T04:58:32;13.27;;;9.07;;
12024;SDS011;6073;53.230;10.444;2023-04-21T05:00:57;16.23;;;9.95;;
12024;SDS011;6073;53.230;10.444;2023-04-21T05:03:23;14.65;;;9.40;;
12024;SDS011;6073;53.230;10.444;2023-04-21T05:05:48;10.45;;;8.50;;
12024;SDS011;6073;53.230;10.444;2023-04-21T05:08:14;12.90;;;10.20;;
12024;SDS011;6073;53.230;10.444;2023-04-21T05:10:39;12.38;;;9.50;;
12024;SDS011;6073;53.230;10.444;2023-04-21T05:13:05;13.35;;;9.38;;
12024;SDS011;6073;53.230;10.444;2023-04-21T05:15:30;14.05;;;9.43;;
12024;SDS011;6073;53.230;10.444;2023-04-21T05:17:56;13.38;;;9.35;;
12024;SDS011;6073;53.230;10.444;2023-04-21T05:20:21;14.50;;;9.70;;
12024;SDS011;6073;53.230;10.444;2023-04-21T05:22:47;13.73;;;8.27;;
12024;SDS011;6073;53.230;10.444;2023-04-21T05:25:12;11.38;;;9.10;;
12024;SDS011;6073;53.230;10.444;2023-04-21T05:27:41;11.65;;;8.30;;
12024;SDS011;6073;53.230;10.444;2023-04-21T05:30:07;10.93;;;8.15;;
12024;SDS011;6073;53.230;10.444;2023-04-21T05:32:33;12.45;;;8.20;;
12024;SDS011;6073;53.230;10.444;2023-04-21T05:34:58;10.93;;;7.80;;
12024;SDS011;6073;53.230;10.444;2023-04-21T05:37:24;13.18;;;7.68;;
12024;SDS011;6073;53.230;10.444;2023-04-21T05:39:50;11.13;;;7.53;;
12024;SDS011;6073;53.230;10.444;2023-04-21T05:42:16;10.77;;;7.25;;
12024;SDS011;6073;53.230;10.444;2023-04-21T05:44:42;11.10;;;7.93;;
12024;SDS011;6073;53.230;10.444;2023-04-21T05:47:08;11.70;;;8.20;;
12024;SDS011;6073;53.230;10.444;2023-04-21T05:49:33;13.90;;;8.10;;
12024;SDS011;6073;53.230;10.444;2023-04-21T05:51:59;9.93;;;7.72;;
12024;SDS011;6073;53.230;10.444;2023-04-21T05:54:24;11.10;;;7.97;;
12024;SDS011;6073;53.230;10.444;2023-04-21T05:56:50;12.45;;;8.43;;
12024;SDS011;6073;53.230;10.444;2023-04-21T05:59:16;10.45;;;7.93;;
12024;SDS011;6073;53.230;10.444;2023-04-21T06:01:41;8.52;;;7.45;;
12024;SDS011;6073;53.230;10.444;2023-04-21T06:04:07;11.88;;;7.75;;
12024;SDS011;6073;53.230;10.444;2023-04-21T06:06:33;11.35;;;7.57;;
12024;SDS011;6073;53.230;10.444;2023-04-21T06:08:58;10.68;;;7.93;;
12024;SDS011;6073;53.230;10.444;2023-04-21T06:11:24;9.77;;;7.60;;
12024;SDS011;6073;53.230;10.444;2023-04-21T06:13:50;11.73;;;8.13;;
12024;SDS011;6073;53.230;10.444;2023-04-21T06:16:18;9.02;;;7.78;;
12024;SDS011;6073;53.230;10.444;2023-04-21T06:18:44;10.00;;;7.63;;
12024;SDS011;6073;53.230;10.444;2023-04-21T06:21:09;8.85;;;7.53;;
12024;SDS011;6073;53.230;10.444;2023-04-21T06:23:35;10.90;;;7.88;;
12024;SDS011;6073;53.230;10.444;2023-04-21T06:26:01;11.35;;;7.85;;
12024;SDS011;6073;53.230;10.444;2023-04-21T06:28:31;8.73;;;7.35;;
12024;SDS011;6073;53.230;10.444;2023-04-21T06:31:00;10.63;;;7.40;;
12024;SDS011;6073;53.230;10.444;2023-04-21T06:33:27;10.25;;;7.75;;
12024;SDS011;6073;53.230;10.444;2023-04-21T06:35:53;11.15;;;8.00;;
12024;SDS011;6073;53.230;10.444;2023-04-21T06:38:19;10.70;;;8.15;;
12024;SDS011;6073;53.230;10.444;2023-04-21T06:40:45;10.13;;;7.30;;
12024;SDS011;6073;53.230;10.444;2023-04-21T06:43:11;10.75;;;7.65;;
12024;SDS011;6073;53.230;10.444;2023-04-21T06:45:36;8.40;;;7.57;;
12024;SDS011;6073;53.230;10.444;2023-04-21T06:48:02;9.25;;;7.43;;
12024;SDS011;6073;53.230;10.444;2023-04-21T06:50:28;10.00;;;8.52;;
12024;SDS011;6073;53.230;10.444;2023-04-21T06:52:53;9.65;;;7.50;;
12024;SDS011;6073;53.230;10.444;2023-04-21T06:55:19;8.90;;;7.32;;
12024;SDS011;6073;53.230;10.444;2023-04-21T06:57:44;10.57;;;7.60;;
12024;SDS011;6073;53.230;10.444;2023-04-21T07:00:10;9.18;;;7.57;;
12024;SDS011;6073;53.230;10.444;2023-04-21T07:02:36;8.48;;;7.57;;
12024;SDS011;6073;53.230;10.444;2023-04-21T07:05:02;9.65;;;7.88;;
12024;SDS011;6073;53.230;10.444;2023-04-21T07:07:28;11.75;;;8.20;;
12024;SDS011;6073;53.230;10.444;2023-04-21T07:09:53;10.50;;;7.63;;
12024;SDS011;6073;53.230;10.444;2023-04-21T07:12:19;8.80;;;7.90;;
12024;SDS011;6073;53.230;10.444;2023-04-21T07:14:45;9.65;;;7.50;;
12024;SDS011;6073;53.230;10.444;2023-04-21T07:17:10;9.80;;;8.13;;
12024;SDS011;6073;53.230;10.444;2023-04-21T07:19:36;12.95;;;8.07;;
12024;SDS011;6073;53.230;10.444;2023-04-21T07:22:03;11.10;;;7.65;;
12024;SDS011;6073;53.230;10.444;2023-04-21T07:24:29;8.68;;;7.70;;
12024;SDS011;6073;53.230;10.444;2023-04-21T07:26:55;8.25;;;7.18;;
12024;SDS011;6073;53.230;10.444;2023-04-21T07:29:21;11.68;;;8.10;;
12024;SDS011;6073;53.230;10.444;2023-04-21T07:31:47;8.93;;;7.82;;
12024;SDS011;6073;53.230;10.444;2023-04-21T07:34:13;9.80;;;7.68;;
12024;SDS011;6073;53.230;10.444;2023-04-21T07:36:38;9.48;;;7.85;;
12024;SDS011;6073;53.230;10.444;2023-04-21T07:39:04;10.88;;;8.02;;
12024;SDS011;6073;53.230;10.444;2023-04-21T07:41:30;10.07;;;7.28;;
12024;SDS011;6073;53.230;10.444;2023-04-21T07:43:55;8.00;;;7.20;;
12024;SDS011;6073;53.230;10.444;2023-04-21T07:46:21;9.18;;;8.00;;
12024;SDS011;6073;53.230;10.444;2023-04-21T07:48:49;7.95;;;6.85;;
12024;SDS011;6073;53.230;10.444;2023-04-21T07:51:15;10.18;;;7.88;;
12024;SDS011;6073;53.230;10.444;2023-04-21T07:53:42;10.43;;;8.02;;
12024;SDS011;6073;53.230;10.444;2023-04-21T07:56:07;10.35;;;7.95;;
12024;SDS011;6073;53.230;10.444;2023-04-21T07:58:33;9.45;;;7.90;;
12024;SDS011;6073;53.230;10.444;2023-04-21T08:00:58;10.07;;;7.72;;
12024;SDS011;6073;53.230;10.444;2023-04-21T08:03:24;8.35;;;7.35;;
12024;SDS011;6073;53.230;10.444;2023-04-21T08:05:50;9.43;;;7.68;;
12024;SDS011;6073;53.230;10.444;2023-04-21T08:08:15;8.52;;;7.15;;
12024;SDS011;6073;53.230;10.444;2023-04-21T08:10:44;11.65;;;8.13;;
12024;SDS011;6073;53.230;10.444;2023-04-21T08:13:10;9.13;;;7.40;;
12024;SDS011;6073;53.230;10.444;2023-04-21T08:15:35;10.15;;;7.80;;
12024;SDS011;6073;53.230;10.444;2023-04-21T08:18:01;11.75;;;7.55;;
12024;SDS011;6073;53.230;10.444;2023-04-21T08:20:26;8.15;;;7.30;;
12024;SDS011;6073;53.230;10.444;2023-04-21T08:22:52;9.63;;;7.60;;
12024;SDS011;6073;53.230;10.444;2023-04-21T08:25:18;8.50;;;7.30;;
12024;SDS011;6073;53.230;10.444;2023-04-21T08:27:43;9.15;;;7.07;;
12024;SDS011;6073;53.230;10.444;2023-04-21T08:30:09;9.32;;;7.85;;
12024;SDS011;6073;53.230;10.444;2023-04-21T08:32:35;10.25;;;7.95;;
12024;SDS011;6073;53.230;10.444;2023-04-21T08:35:01;8.93;;;7.75;;
12024;SDS011;6073;53.230;10.444;2023-04-21T08:37:26;9.70;;;7.18;;
12024;SDS011;6073;53.230;10.444;2023-04-21T08:39:53;10.10;;;7.68;;
12024;SDS011;6073;53.230;10.444;2023-04-21T08:42:18;10.45;;;7.53;;
12024;SDS011;6073;53.230;10.444;2023-04-21T08:44:45;9.48;;;7.57;;
12024;SDS011;6073;53.230;10.444;2023-04-21T08:47:11;12.43;;;7.25;;
12024;SDS011;6073;53.230;10.444;2023-04-21T08:49:38;7.57;;;6.85;;
12024;SDS011;6073;53.230;10.444;2023-04-21T08:52:05;8.55;;;7.10;;
12024;SDS011;6073;53.230;10.444;2023-04-21T08:54:31;10.15;;;7.53;;
12024;SDS011;6073;53.230;10.444;2023-04-21T08:56:57;10.70;;;7.93;;
12024;SDS011;6073;53.230;10.444;2023-04-21T08:59:24;11.57;;;7.45;;
12024;SDS011;6073;53.230;10.444;2023-04-21T09:02:05;8.30;;;7.20;;
12024;SDS011;6073;53.230;10.444;2023-04-21T09:04:40;10.60;;;7.90;;
12024;SDS011;6073;53.230;10.444;2023-04-21T09:07:06;8.65;;;7.47;;
12024;SDS011;6073;53.230;10.444;2023-04-21T09:09:33;9.40;;;8.07;;
12024;SDS011;6073;53.230;10.444;2023-04-21T09:12:18;7.93;;;7.13;;
12024;SDS011;6073;53.230;10.444;2023-04-21T09:14:44;10.48;;;8.32;;
12024;SDS011;6073;53.230;10.444;2023-04-21T09:17:10;7.63;;;6.88;;
12024;SDS011;6073;53.230;10.444;2023-04-21T09:19:35;11.35;;;7.55;;
12024;SDS011;6073;53.230;10.444;2023-04-21T09:22:01;7.88;;;7.15;;
12024;SDS011;6073;53.230;10.444;2023-04-21T09:24:27;13.35;;;8.70;;
12024;SDS011;6073;53.230;10.444;2023-04-21T09:26:54;9.90;;;7.78;;
12024;SDS011;6073;53.230;10.444;2023-04-21T09:29:22;9.68;;;7.82;;
12024;SDS011;6073;53.230;10.444;2023-04-21T09:31:49;11.73;;;8.10;;
12024;SDS011;6073;53.230;10.444;2023-04-21T09:34:18;8.68;;;7.65;;
12024;SDS011;6073;53.230;10.444;2023-04-21T09:36:45;10.60;;;7.60;;
12024;SDS011;6073;53.230;10.444;2023-04-21T09:39:12;9.38;;;7.70;;
12024;SDS011;6073;53.230;10.444;2023-04-21T09:41:38;8.63;;;7.82;;
12024;SDS011;6073;53.230;10.444;2023-04-21T09:44:04;9.13;;;7.72;;
12024;SDS011;6073;53.230;10.444;2023-04-21T09:46:33;10.27;;;8.05;;
12024;SDS011;6073;53.230;10.444;2023-04-21T09:49:00;11.27;;;8.15;;
12024;SDS011;6073;53.230;10.444;2023-04-21T09:51:26;9.27;;;8.02;;
12024;SDS011;6073;53.230;10.444;2023-04-21T09:53:58;9.23;;;7.63;;
12024;SDS011;6073;53.230;10.444;2023-04-21T09:56:24;9.18;;;7.38;;
12024;SDS011;6073;53.230;10.444;2023-04-21T09:58:56;11.00;;;7.75;;
12024;SDS011;6073;53.230;10.444;2023-04-21T10:01:25;8.07;;;7.28;;
12024;SDS011;6073;53.230;10.444;2023-04-21T10:03:53;8.30;;;7.50;;
12024;SDS011;6073;53.230;10.444;2023-04-21T10:06:19;10.70;;;7.97;;
12024;SDS011;6073;53.230;10.444;2023-04-21T10:08:45;10.73;;;7.75;;
12024;SDS011;6073;53.230;10.444;2023-04-21T10:11:11;8.40;;;7.13;;
12024;SDS011;6073;53.230;10.444;2023-04-21T10:13:37;9.05;;;6.93;;
12024;SDS011;6073;53.230;10.444;2023-04-21T10:16:06;9.70;;;7.10;;
12024;SDS011;6073;53.230;10.444;2023-04-21T10:18:36;9.50;;;7.20;;
12024;SDS011;6073;53.230;10.444;2023-04-21T10:21:07;7.88;;;7.15;;
12024;SDS011;6073;53.230;10.444;2023-04-21T10:23:44;9.45;;;6.90;;
12024;SDS011;6073;53.230;10.444;2023-04-21T10:26:12;7.60;;;6.78;;
12024;SDS011;6073;53.230;10.444;2023-04-21T10:28:44;10.20;;;7.63;;
12024;SDS011;6073;53.230;10.444;2023-04-21T10:36:42;11.20;;;7.07;;
12024;SDS011;6073;53.230;10.444;2023-04-21T10:39:11;9.65;;;7.43;;
12024;SDS011;6073;53.230;10.444;2023-04-21T10:41:50;9.00;;;6.72;;
12024;SDS011;6073;53.230;10.444;2023-04-21T10:44:18;10.00;;;6.95;;
12024;SDS011;6073;53.230;10.444;2023-04-21T10:46:46;8.80;;;6.38;;
12024;SDS011;6073;53.230;10.444;2023-04-21T10:49:23;10.60;;;7.95;;
12024;SDS011;6073;53.230;10.444;2023-04-21T10:54:24;7.70;;;6.90;;
12024;SDS011;6073;53.230;10.444;2023-04-21T10:56:51;8.80;;;6.75;;
12024;SDS011;6073;53.230;10.444;2023-04-21T10:59:18;7.45;;;6.53;;
12024;SDS011;6073;53.230;10.444;2023-04-21T11:01:44;8.60;;;6.70;;
12024;SDS011;6073;53.230;10.444;2023-04-21T11:04:16;8.00;;;6.95;;
12024;SDS011;6073;53.230;10.444;2023-04-21T11:09:31;7.70;;;6.90;;
12024;SDS011;6073;53.230;10.444;2023-04-21T11:12:07;6.80;;;5.80;;
12024;SDS011;6073;53.230;10.444;2023-04-21T11:14:35;7.38;;;6.35;;
12024;SDS011;6073;53.230;10.444;2023-04-21T11:17:07;8.20;;;6.60;;
12024;SDS011;6073;53.230;10.444;2023-04-21T11:19:37;7.60;;;6.15;;
12024;SDS011;6073;53.230;10.444;2023-04-21T11:22:03;7.63;;;6.38;;
12024;SDS011;6073;53.230;10.444;2023-04-21T11:24:32;7.25;;;6.55;;
12024;SDS011;6073;53.230;10.444;2023-04-21T11:26:58;8.15;;;6.22;;
12024;SDS011;6073;53.230;10.444;2023-04-21T11:29:25;9.43;;;7.13;;
12024;SDS011;6073;53.230;10.444;2023-04-21T11:31:53;8.57;;;6.53;;
12024;SDS011;6073;53.230;10.444;2023-04-21T11:34:19;9.70;;;6.10;;
12024;SDS011;6073;53.230;10.444;2023-04-21T11:36:45;7.50;;;6.60;;
12024;SDS011;6073;53.230;10.444;2023-04-21T11:39:12;8.13;;;6.38;;
12024;SDS011;6073;53.230;10.444;2023-04-21T11:41:40;9.40;;;6.47;;
12024;SDS011;6073;53.230;10.444;2023-04-21T11:44:08;6.95;;;5.85;;
12024;SDS011;6073;53.230;10.444;2023-04-21T11:46:34;11.25;;;6.85;;
12024;SDS011;6073;53.230;10.444;2023-04-21T11:49:05;7.15;;;5.88;;
12024;SDS011;6073;53.230;10.444;2023-04-21T11:51:33;7.10;;;5.80;;
12024;SDS011;6073;53.230;10.444;2023-04-21T11:54:11;7.00;;;5.70;;
12024;SDS011;6073;53.230;10.444;2023-04-21T11:56:42;6.32;;;5.70;;
12024;SDS011;6073;53.230;10.444;2023-04-21T11:59:11;8.88;;;6.07;;
12024;SDS011;6073;53.230;10.444;2023-04-21T12:01:56;6.78;;;5.25;;
12024;SDS011;6073;53.230;10.444;2023-04-21T12:04:23;8.05;;;5.95;;
12024;SDS011;6073;53.230;10.444;2023-04-21T12:06:59;7.07;;;5.80;;
12024;SDS011;6073;53.230;10.444;2023-04-21T12:09:26;8.00;;;6.22;;
12024;SDS011;6073;53.230;10.444;2023-04-21T12:11:52;8.15;;;6.35;;
12024;SDS011;6073;53.230;10.444;2023-04-21T12:14:20;6.82;;;5.65;;
12024;SDS011;6073;53.230;10.444;2023-04-21T12:16:53;8.77;;;6.22;;
12024;SDS011;6073;53.230;10.444;2023-04-21T12:19:36;6.35;;;5.60;;
12024;SDS011;6073;53.230;10.444;2023-04-21T12:22:10;8.82;;;5.85;;
12024;SDS011;6073;53.230;10.444;2023-04-21T12:24:37;7.05;;;5.32;;
12024;SDS011;6073;53.230;10.444;2023-04-21T12:27:04;7.25;;;6.07;;
12024;SDS011;6073;53.230;10.444;2023-04-21T12:29:30;9.00;;;5.97;;
12024;SDS011;6073;53.230;10.444;2023-04-21T12:31:56;9.80;;;5.72;;
12024;SDS011;6073;53.230;10.444;2023-04-21T12:34:22;6.97;;;5.88;;
12024;SDS011;6073;53.230;10.444;2023-04-21T12:36:47;9.32;;;5.90;;
12024;SDS011;6073;53.230;10.444;2023-04-21T12:39:13;6.93;;;6.18;;
12024;SDS011;6073;53.230;10.444;2023-04-21T12:41:41;11.38;;;7.20;;
12024;SDS011;6073;53.230;10.444;2023-04-21T12:44:06;7.22;;;5.93;;
12024;SDS011;6073;53.230;10.444;2023-04-21T12:46:32;10.50;;;6.75;;
12024;SDS011;6073;53.230;10.444;2023-04-21T12:48:57;6.60;;;5.88;;
12024;SDS011;6073;53.230;10.444;2023-04-21T12:51:23;7.65;;;6.43;;
12024;SDS011;6073;53.230;10.444;2023-04-21T12:53:49;8.55;;;6.18;;
12024;SDS011;6073;53.230;10.444;2023-04-21T12:56:14;7.00;;;6.30;;
12024;SDS011;6073;53.230;10.444;2023-04-21T12:58:40;8.95;;;6.72;;
12024;SDS011;6073;53.230;10.444;2023-04-21T13:01:06;12.68;;;6.40;;
12024;SDS011;6073;53.230;10.444;2023-04-21T13:03:32;8.93;;;6.55;;
12024;SDS011;6073;53.230;10.444;2023-04-21T13:05:57;7.63;;;5.90;;
12024;SDS011;6073;53.230;10.444;2023-04-21T13:08:23;6.45;;;5.85;;
12024;SDS011;6073;53.230;10.444;2023-04-21T13:10:49;7.63;;;6.05;;
12024;SDS011;6073;53.230;10.444;2023-04-21T13:13:14;7.53;;;6.13;;
12024;SDS011;6073;53.230;10.444;2023-04-21T13:15:40;6.80;;;5.65;;
12024;SDS011;6073;53.230;10.444;2023-04-21T13:18:05;11.00;;;5.97;;
12024;SDS011;6073;53.230;10.444;2023-04-21T13:20:31;6.65;;;5.95;;
12024;SDS011;6073;53.230;10.444;2023-04-21T13:22:56;6.50;;;5.90;;
12024;SDS011;6073;53.230;10.444;2023-04-21T13:25:22;9.13;;;5.90;;
12024;SDS011;6073;53.230;10.444;2023-04-21T13:27:48;7.70;;;6.25;;
12024;SDS011;6073;53.230;10.444;2023-04-21T13:30:13;7.63;;;6.20;;
12024;SDS011;6073;53.230;10.444;2023-04-21T13:32:40;7.55;;;6.40;;
12024;SDS011;6073;53.230;10.444;2023-04-21T13:35:06;6.57;;;5.78;;
12024;SDS011;6073;53.230;10.444;2023-04-21T13:37:35;7.53;;;5.90;;
12024;SDS011;6073;53.230;10.444;2023-04-21T13:40:02;7.55;;;5.97;;
12024;SDS011;6073;53.230;10.444;2023-04-21T13:42:28;11.45;;;6.35;;
12024;SDS011;6073;53.230;10.444;2023-04-21T13:44:54;7.88;;;5.80;;
12024;SDS011;6073;53.230;10.444;2023-04-21T13:47:20;6.82;;;5.90;;
12024;SDS011;6073;53.230;10.444;2023-04-21T13:49:45;7.93;;;5.55;;
12024;SDS011;6073;53.230;10.444;2023-04-21T13:52:11;7.72;;;5.03;;
12024;SDS011;6073;53.230;10.444;2023-04-21T13:54:37;6.75;;;6.10;;
12024;SDS011;6073;53.230;10.444;2023-04-21T13:57:02;5.75;;;5.13;;
12024;SDS011;6073;53.230;10.444;2023-04-21T13:59:29;8.00;;;5.10;;
12024;SDS011;6073;53.230;10.444;2023-04-21T14:01:54;6.60;;;5.75;;
12024;SDS011;6073;53.230;10.444;2023-04-21T14:04:20;7.18;;;5.25;;
12024;SDS011;6073;53.230;10.444;2023-04-21T14:06:47;8.68;;;5.35;;
12024;SDS011;6073;53.230;10.444;2023-04-21T14:09:13;9.90;;;5.78;;
12024;SDS011;6073;53.230;10.444;2023-04-21T14:11:39;10.27;;;5.38;;
12024;SDS011;6073;53.230;10.444;2023-04-21T14:14:05;9.18;;;5.32;;
12024;SDS011;6073;53.230;10.444;2023-04-21T14:16:30;6.28;;;5.38;;
12024;SDS011;6073;53.230;10.444;2023-04-21T14:18:56;6.43;;;5.70;;
12024;SDS011;6073;53.230;10.444;2023-04-21T14:21:21;9.50;;;5.47;;
12024;SDS011;6073;53.230;10.444;2023-04-21T14:23:47;9.00;;;5.35;;
12024;SDS011;6073;53.230;10.444;2023-04-21T14:26:13;7.65;;;5.40;;
12024;SDS011;6073;53.230;10.444;2023-04-21T14:28:38;7.28;;;5.20;;
12024;SDS011;6073;53.230;10.444;2023-04-21T14:31:04;7.55;;;5.60;;
12024;SDS011;6073;53.230;10.444;2023-04-21T14:33:30;7.38;;;5.30;;
12024;SDS011;6073;53.230;10.444;2023-04-21T14:35:57;10.02;;;5.63;;
12024;SDS011;6073;53.230;10.444;2023-04-21T14:38:23;5.95;;;5.38;;
12024;SDS011;6073;53.230;10.444;2023-04-21T14:40:49;6.55;;;5.50;;
12024;SDS011;6073;53.230;10.444;2023-04-21T14:43:18;8.40;;;4.93;;
12024;SDS011;6073;53.230;10.444;2023-04-21T14:45:46;7.28;;;5.22;;